sensor_id;sensor_type;location;lat;lon;timestamp;pressure;altitude;pressure_sealevel;temperature;humidity
43878;BME280;29815;48.184;11.268;2023-05-24T00:00:10;95725.81;;;12.06;100.00
43878;BME280;29815;48.184;11.268;2023-05-24T00:02:43;95726.88;;;12.05;100.00
43878;BME280;29815;48.184;11.268;2023-05-24T00:05:13;95716.66;;;12.02;100.00
43878;BME280;29815;48.184;11.268;2023-05-24T00:07:44;95715.59;;;12.03;100.00
43878;BME280;29815;48.184;11.268;2023-05-24T00:10:13;95709.06;;;12.04;100.00
43878;BME280;29815;48.184;11.268;2023-05-24T00:12:43;95712.31;;;12.06;100.00
43878;BME280;29815;48.184;11.268;2023-05-24T00:15:14;95707.97;;;12.10;100.00
43878;BME280;29815;48.184;11.268;2023-05-24T00:17:44;95708.25;;;12.14;100.00
43878;BME280;29815;48.184;11.268;2023-05-24T00:20:14;95707.97;;;12.15;100.00
43878;BME280;29815;48.184;11.268;2023-05-24T00:22:44;95710.13;;;12.18;100.00
43878;BME280;29815;48.184;11.268;2023-05-24T00:25:14;95711.75;;;12.19;100.00
43878;BME280;29815;48.184;11.268;2023-05-24T00:27:43;95710.66;;;12.20;100.00
43878;BME280;29815;48.184;11.268;2023-05-24T00:30:14;95708.75;;;12.21;100.00
43878;BME280;29815;48.184;11.268;2023-05-24T00:32:44;95705.25;;;12.20;100.00
43878;BME280;29815;48.184;11.268;2023-05-24T00:35:14;95704.72;;;12.18;100.00
43878;BME280;29815;48.184;11.268;2023-05-24T00:37:44;95702.56;;;12.20;100.00
43878;BME280;29815;48.184;11.268;2023-05-24T00:40:16;95701.47;;;12.22;100.00
43878;BME280;29815;48.184;11.268;2023-05-24T00:42:45;95693.41;;;12.16;100.00
43878;BME280;29815;48.184;11.268;2023-05-24T00:45:18;95703.38;;;12.16;100.00
43878;BME280;29815;48.184;11.268;2023-05-24T00:47:47;95703.66;;;12.14;100.00
43878;BME280;29815;48.184;11.268;2023-05-24T00:50:18;95706.09;;;12.16;100.00
43878;BME280;29815;48.184;11.268;2023-05-24T00:52:49;95706.09;;;12.16;100.00
43878;BME280;29815;48.184;11.268;2023-05-24T00:55:20;95705.00;;;12.17;100.00
43878;BME280;29815;48.184;11.268;2023-05-24T00:57:50;95709.31;;;12.18;100.00
43878;BME280;29815;48.184;11.268;2023-05-24T01:00:24;95712.00;;;12.18;100.00
43878;BME280;29815;48.184;11.268;2023-05-24T01:02:54;95705.00;;;12.17;100.00
43878;BME280;29815;48.184;11.268;2023-05-24T01:05:24;95701.75;;;12.15;100.00
43878;BME280;29815;48.184;11.268;2023-05-24T01:08:06;95707.16;;;12.15;100.00
43878;BME280;29815;48.184;11.268;2023-05-24T01:10:52;95698.78;;;12.16;100.00
43878;BME280;29815;48.184;11.268;2023-05-24T01:13:33;95698.25;;;12.19;100.00
43878;BME280;29815;48.184;11.268;2023-05-24T01:16:12;95694.19;;;12.22;100.00
43878;BME280;29815;48.184;11.268;2023-05-24T01:18:49;95694.47;;;12.20;100.00
43878;BME280;29815;48.184;11.268;2023-05-24T01:21:37;95692.56;;;12.21;100.00
43878;BME280;29815;48.184;11.268;2023-05-24T01:24:29;95689.59;;;12.23;100.00
43878;BME280;29815;48.184;11.268;2023-05-24T01:27:06;95692.84;;;12.25;100.00
43878;BME280;29815;48.184;11.268;2023-05-24T01:29:37;95686.34;;;12.26;100.00
43878;BME280;29815;48.184;11.268;2023-05-24T01:32:08;95686.34;;;12.26;100.00
43878;BME280;29815;48.184;11.268;2023-05-24T01:34:39;95690.41;;;12.23;100.00
43878;BME280;29815;48.184;11.268;2023-05-24T01:37:09;95689.31;;;12.24;100.00
43878;BME280;29815;48.184;11.268;2023-05-24T01:39:39;95680.97;;;12.20;100.00
43878;BME280;29815;48.184;11.268;2023-05-24T01:42:24;95686.38;;;12.20;100.00
43878;BME280;29815;48.184;11.268;2023-05-24T01:45:05;95684.47;;;12.21;100.00
43878;BME280;29815;48.184;11.268;2023-05-24T01:47:48;95681.78;;;12.16;100.00
43878;BME280;29815;48.184;11.268;2023-05-24T01:50:30;95684.22;;;12.17;100.00
43878;BME280;29815;48.184;11.268;2023-05-24T01:53:05;95689.09;;;12.15;100.00
43878;BME280;29815;48.184;11.268;2023-05-24T01:55:36;95687.47;;;12.14;100.00
43878;BME280;29815;48.184;11.268;2023-05-24T01:58:09;95691.25;;;12.13;100.00
43878;BME280;29815;48.184;11.268;2023-05-24T02:00:39;95689.09;;;12.10;100.00
43878;BME280;29815;48.184;11.268;2023-05-24T02:03:12;95695.03;;;12.12;100.00
43878;BME280;29815;48.184;11.268;2023-05-24T02:05:43;95695.31;;;12.11;100.00
43878;BME280;29815;48.184;11.268;2023-05-24T02:08:13;95692.06;;;12.09;100.00
43878;BME280;29815;48.184;11.268;2023-05-24T02:10:43;95693.16;;;12.08;100.00
43878;BME280;29815;48.184;11.268;2023-05-24T02:13:14;95688.84;;;12.07;100.00
43878;BME280;29815;48.184;11.268;2023-05-24T02:15:45;95697.47;;;12.09;100.00
43878;BME280;29815;48.184;11.268;2023-05-24T02:18:15;95698.28;;;12.04;100.00
43878;BME280;29815;48.184;11.268;2023-05-24T02:20:45;95695.59;;;12.04;100.00
43878;BME280;29815;48.184;11.268;2023-05-24T02:23:16;95695.03;;;12.07;100.00
43878;BME280;29815;48.184;11.268;2023-05-24T02:25:46;95694.50;;;12.05;100.00
43878;BME280;29815;48.184;11.268;2023-05-24T02:28:17;95692.91;;;12.04;100.00
43878;BME280;29815;48.184;11.268;2023-05-24T02:30:46;95685.59;;;12.05;100.00
43878;BME280;29815;48.184;11.268;2023-05-24T02:33:16;95687.22;;;12.06;100.00
43878;BME280;29815;48.184;11.268;2023-05-24T02:35:46;95682.09;;;12.04;100.00
43878;BME280;29815;48.184;11.268;2023-05-24T02:38:15;95684.78;;;12.04;100.00
43878;BME280;29815;48.184;11.268;2023-05-24T02:40:45;95682.91;;;12.05;100.00
43878;BME280;29815;48.184;11.268;2023-05-24T02:43:16;95692.09;;;12.04;100.00
43878;BME280;29815;48.184;11.268;2023-05-24T02:45:46;95681.34;;;11.99;100.00
43878;BME280;29815;48.184;11.268;2023-05-24T02:48:15;95689.69;;;11.97;100.00
43878;BME280;29815;48.184;11.268;2023-05-24T02:50:45;95684.84;;;11.94;100.00
43878;BME280;29815;48.184;11.268;2023-05-24T02:53:14;95681.63;;;11.92;100.00
43878;BME280;29815;48.184;11.268;2023-05-24T02:55:44;95679.19;;;11.91;100.00
43878;BME280;29815;48.184;11.268;2023-05-24T02:58:17;95683.25;;;11.88;100.00
43878;BME280;29815;48.184;11.268;2023-05-24T03:00:49;95677.03;;;11.88;100.00
43878;BME280;29815;48.184;11.268;2023-05-24T03:03:21;95678.66;;;11.89;100.00
43878;BME280;29815;48.184;11.268;2023-05-24T03:05:50;95677.03;;;11.88;100.00
43878;BME280;29815;48.184;11.268;2023-05-24T03:08:20;95673.00;;;11.85;100.00
43878;BME280;29815;48.184;11.268;2023-05-24T03:10:50;95679.22;;;11.85;100.00
43878;BME280;29815;48.184;11.268;2023-05-24T03:13:21;95681.34;;;11.89;100.00
43878;BME280;29815;48.184;11.268;2023-05-24T03:15:50;95668.97;;;11.82;100.00
43878;BME280;29815;48.184;11.268;2023-05-24T03:18:20;95677.06;;;11.77;100.00
43878;BME280;29815;48.184;11.268;2023-05-24T03:20:50;95681.13;;;11.75;100.00
43878;BME280;29815;48.184;11.268;2023-05-24T03:23:20;95684.34;;;11.72;100.00
43878;BME280;29815;48.184;11.268;2023-05-24T03:25:49;95685.69;;;11.74;100.00
43878;BME280;29815;48.184;11.268;2023-05-24T03:28:20;95684.09;;;11.68;100.00
43878;BME280;29815;48.184;11.268;2023-05-24T03:30:50;95677.91;;;11.63;100.00
43878;BME280;29815;48.184;11.268;2023-05-24T03:33:20;95684.38;;;11.62;100.00
43878;BME280;29815;48.184;11.268;2023-05-24T03:35:50;95682.75;;;11.61;100.00
43878;BME280;29815;48.184;11.268;2023-05-24T03:38:20;95690.03;;;11.60;100.00
43878;BME280;29815;48.184;11.268;2023-05-24T03:40:49;95688.94;;;11.61;100.00
43878;BME280;29815;48.184;11.268;2023-05-24T03:43:20;95687.34;;;11.60;100.00
43878;BME280;29815;48.184;11.268;2023-05-24T03:45:55;95698.38;;;11.59;100.00
43878;BME280;29815;48.184;11.268;2023-05-24T03:48:25;95702.44;;;11.56;100.00
43878;BME280;29815;48.184;11.268;2023-05-24T03:50:55;95704.59;;;11.59;100.00
43878;BME280;29815;48.184;11.268;2023-05-24T03:53:24;95695.97;;;11.57;100.00
43878;BME280;29815;48.184;11.268;2023-05-24T03:55:54;95701.88;;;11.59;100.00
43878;BME280;29815;48.184;11.268;2023-05-24T03:58:25;95703.25;;;11.57;100.00
43878;BME280;29815;48.184;11.268;2023-05-24T04:00:55;95704.31;;;11.56;100.00
43878;BME280;29815;48.184;11.268;2023-05-24T04:03:25;95708.09;;;11.54;100.00
43878;BME280;29815;48.184;11.268;2023-05-24T04:05:55;95713.47;;;11.54;100.00
43878;BME280;29815;48.184;11.268;2023-05-24T04:08:25;95713.47;;;11.54;100.00
43878;BME280;29815;48.184;11.268;2023-05-24T04:10:54;95716.44;;;11.53;100.00
43878;BME280;29815;48.184;11.268;2023-05-24T04:13:25;95709.44;;;11.57;100.00
43878;BME280;29815;48.184;11.268;2023-05-24T04:15:55;95714.56;;;11.59;100.00
43878;BME280;29815;48.184;11.268;2023-05-24T04:18:25;95717.25;;;11.59;100.00
43878;BME280;29815;48.184;11.268;2023-05-24T04:20:55;95719.16;;;11.58;100.00
43878;BME280;29815;48.184;11.268;2023-05-24T04:23:25;95722.66;;;11.59;100.00
43878;BME280;29815;48.184;11.268;2023-05-24T04:25:54;95712.66;;;11.54;100.00
43878;BME280;29815;48.184;11.268;2023-05-24T04:28:25;95716.72;;;11.57;100.00
43878;BME280;29815;48.184;11.268;2023-05-24T04:30:55;95719.41;;;11.57;100.00
43878;BME280;29815;48.184;11.268;2023-05-24T04:33:25;95717.78;;;11.56;100.00
43878;BME280;29815;48.184;11.268;2023-05-24T04:35:55;95728.84;;;11.54;100.00
43878;BME280;29815;48.184;11.268;2023-05-24T04:38:28;95725.06;;;11.50;100.00
43878;BME280;29815;48.184;11.268;2023-05-24T04:40:59;95731.84;;;11.47;100.00
43878;BME280;29815;48.184;11.268;2023-05-24T04:43:30;95723.75;;;11.47;100.00
43878;BME280;29815;48.184;11.268;2023-05-24T04:46:00;95724.03;;;11.41;100.00
43878;BME280;29815;48.184;11.268;2023-05-24T04:48:30;95725.91;;;11.35;100.00
43878;BME280;29815;48.184;11.268;2023-05-24T04:50:59;95735.34;;;11.33;100.00
43878;BME280;29815;48.184;11.268;2023-05-24T04:53:29;95728.31;;;11.32;100.00
43878;BME280;29815;48.184;11.268;2023-05-24T04:56:00;95720.78;;;11.29;100.00
43878;BME280;29815;48.184;11.268;2023-05-24T04:58:31;95721.03;;;11.27;100.00
43878;BME280;29815;48.184;11.268;2023-05-24T05:01:01;95728.06;;;11.28;100.00
43878;BME280;29815;48.184;11.268;2023-05-24T05:03:30;95724.56;;;11.28;100.00
43878;BME280;29815;48.184;11.268;2023-05-24T05:06:00;95720.50;;;11.30;100.00
43878;BME280;29815;48.184;11.268;2023-05-24T05:08:30;95719.97;;;11.28;100.00
43878;BME280;29815;48.184;11.268;2023-05-24T05:10:59;95727.25;;;11.33;100.00
43878;BME280;29815;48.184;11.268;2023-05-24T05:13:31;95725.09;;;11.35;100.00
43878;BME280;29815;48.184;11.268;2023-05-24T05:16:01;95726.19;;;11.39;100.00
43878;BME280;29815;48.184;11.268;2023-05-24T05:18:30;95734.00;;;11.40;100.00
43878;BME280;29815;48.184;11.268;2023-05-24T05:21:00;95724.03;;;11.46;100.00
43878;BME280;29815;48.184;11.268;2023-05-24T05:23:31;95728.84;;;11.49;100.00
43878;BME280;29815;48.184;11.268;2023-05-24T05:26:00;95724.81;;;11.51;100.00
43878;BME280;29815;48.184;11.268;2023-05-24T05:28:31;95731.53;;;11.49;100.00
43878;BME280;29815;48.184;11.268;2023-05-24T05:31:01;95719.16;;;11.48;100.00
43878;BME280;29815;48.184;11.268;2023-05-24T05:33:31;95723.75;;;11.47;100.00
43878;BME280;29815;48.184;11.268;2023-05-24T05:36:01;95717.28;;;11.48;100.00
43878;BME280;29815;48.184;11.268;2023-05-24T05:38:31;95716.19;;;11.54;100.00
43878;BME280;29815;48.184;11.268;2023-05-24T05:41:00;95712.66;;;11.54;100.00
43878;BME280;29815;48.184;11.268;2023-05-24T05:43:31;95714.56;;;11.59;100.00
43878;BME280;29815;48.184;11.268;2023-05-24T05:46:01;95717.78;;;11.61;100.00
43878;BME280;29815;48.184;11.268;2023-05-24T05:48:31;95717.53;;;11.62;100.00
43878;BME280;29815;48.184;11.268;2023-05-24T05:51:00;95715.38;;;11.64;100.00
43878;BME280;29815;48.184;11.268;2023-05-24T05:53:32;95714.28;;;11.70;100.00
43878;BME280;29815;48.184;11.268;2023-05-24T05:56:02;95706.72;;;11.77;100.00
43878;BME280;29815;48.184;11.268;2023-05-24T05:58:33;95700.25;;;11.83;100.00
43878;BME280;29815;48.184;11.268;2023-05-24T06:01:05;95713.72;;;11.89;100.00
43878;BME280;29815;48.184;11.268;2023-05-24T06:03:35;95702.13;;;11.93;100.00
43878;BME280;29815;48.184;11.268;2023-05-24T06:06:05;95709.41;;;11.93;100.00
43878;BME280;29815;48.184;11.268;2023-05-24T06:08:34;95703.19;;;11.97;100.00
43878;BME280;29815;48.184;11.268;2023-05-24T06:11:04;95706.38;;;12.04;100.00
43878;BME280;29815;48.184;11.268;2023-05-24T06:13:35;95713.09;;;12.12;100.00
43878;BME280;29815;48.184;11.268;2023-05-24T06:16:05;95719.59;;;12.11;100.00
43878;BME280;29815;48.184;11.268;2023-05-24T06:18:37;95710.13;;;12.13;100.00
43878;BME280;29815;48.184;11.268;2023-05-24T06:21:20;95709.59;;;12.16;100.00
43878;BME280;29815;48.184;11.268;2023-05-24T06:23:50;95708.50;;;12.23;100.00
43878;BME280;29815;48.184;11.268;2023-05-24T06:26:20;95703.88;;;12.28;100.00
43878;BME280;29815;48.184;11.268;2023-05-24T06:28:51;95705.47;;;12.34;100.00
43878;BME280;29815;48.184;11.268;2023-05-24T06:31:20;95708.94;;;12.40;100.00
43878;BME280;29815;48.184;11.268;2023-05-24T06:33:50;95701.09;;;12.48;100.00
43878;BME280;29815;48.184;11.268;2023-05-24T06:36:31;95711.03;;;12.58;100.00
43878;BME280;29815;48.184;11.268;2023-05-24T06:39:03;95718.50;;;12.71;100.00
43878;BME280;29815;48.184;11.268;2023-05-24T06:41:32;95720.66;;;12.74;100.00
43878;BME280;29815;48.184;11.268;2023-05-24T06:44:03;95725.50;;;12.77;100.00
43878;BME280;29815;48.184;11.268;2023-05-24T06:46:33;95724.59;;;12.87;100.00
43878;BME280;29815;48.184;11.268;2023-05-24T06:49:03;95727.56;;;12.91;100.00
43878;BME280;29815;48.184;11.268;2023-05-24T06:51:34;95730.22;;;12.96;100.00
43878;BME280;29815;48.184;11.268;2023-05-24T06:54:03;95729.72;;;12.94;100.00
43878;BME280;29815;48.184;11.268;2023-05-24T06:56:33;95732.66;;;12.97;100.00
43878;BME280;29815;48.184;11.268;2023-05-24T06:59:04;95732.63;;;13.02;100.00
43878;BME280;29815;48.184;11.268;2023-05-24T07:01:36;95732.38;;;12.99;100.00
43878;BME280;29815;48.184;11.268;2023-05-24T07:04:07;95736.69;;;13.00;100.00
43878;BME280;29815;48.184;11.268;2023-05-24T07:06:36;95735.63;;;12.96;100.00
43878;BME280;29815;48.184;11.268;2023-05-24T07:09:06;95736.41;;;13.01;100.00
43878;BME280;29815;48.184;11.268;2023-05-24T07:11:37;95736.84;;;13.13;100.00
43878;BME280;29815;48.184;11.268;2023-05-24T07:14:08;95737.63;;;13.24;100.00
43878;BME280;29815;48.184;11.268;2023-05-24T07:16:38;95749.19;;;13.35;100.00
43878;BME280;29815;48.184;11.268;2023-05-24T07:19:07;95751.63;;;13.36;100.00
43878;BME280;29815;48.184;11.268;2023-05-24T07:21:37;95748.28;;;13.44;100.00
43878;BME280;29815;48.184;11.268;2023-05-24T07:24:07;95739.28;;;13.54;100.00
43878;BME280;29815;48.184;11.268;2023-05-24T07:26:37;95742.81;;;13.54;100.00
43878;BME280;29815;48.184;11.268;2023-05-24T07:29:08;95739.50;;;13.63;100.00
43878;BME280;29815;48.184;11.268;2023-05-24T07:31:38;95741.53;;;13.76;100.00
43878;BME280;29815;48.184;11.268;2023-05-24T07:34:08;95737.91;;;13.85;100.00
43878;BME280;29815;48.184;11.268;2023-05-24T07:36:37;95737.63;;;13.87;100.00
43878;BME280;29815;48.184;11.268;2023-05-24T07:39:08;95739.34;;;13.78;100.00
43878;BME280;29815;48.184;11.268;2023-05-24T07:41:38;95746.16;;;13.70;100.00
43878;BME280;29815;48.184;11.268;2023-05-24T07:44:09;95744.09;;;13.62;100.00
43878;BME280;29815;48.184;11.268;2023-05-24T07:46:39;95747.25;;;13.69;100.00
43878;BME280;29815;48.184;11.268;2023-05-24T07:49:09;95742.63;;;13.75;100.00
43878;BME280;29815;48.184;11.268;2023-05-24T07:51:38;95738.56;;;13.72;100.00
43878;BME280;29815;48.184;11.268;2023-05-24T07:54:08;95737.84;;;13.67;100.00
43878;BME280;29815;48.184;11.268;2023-05-24T07:56:37;95741.34;;;13.67;100.00
43878;BME280;29815;48.184;11.268;2023-05-24T07:59:08;95741.16;;;13.59;100.00
43878;BME280;29815;48.184;11.268;2023-05-24T08:01:38;95732.50;;;13.57;100.00
43878;BME280;29815;48.184;11.268;2023-05-24T08:04:08;95738.44;;;13.59;100.00
43878;BME280;29815;48.184;11.268;2023-05-24T08:06:38;95742.44;;;13.66;100.00
43878;BME280;29815;48.184;11.268;2023-05-24T08:09:09;95739.75;;;13.66;100.00
43878;BME280;29815;48.184;11.268;2023-05-24T08:11:39;95749.91;;;13.74;100.00
43878;BME280;29815;48.184;11.268;2023-05-24T08:14:10;95742.31;;;13.76;100.00
43878;BME280;29815;48.184;11.268;2023-05-24T08:16:40;95750.97;;;13.78;100.00
43878;BME280;29815;48.184;11.268;2023-05-24T08:19:10;95758.84;;;13.75;100.00
43878;BME280;29815;48.184;11.268;2023-05-24T08:21:40;95750.56;;;13.66;100.00
43878;BME280;29815;48.184;11.268;2023-05-24T08:24:10;95749.78;;;13.61;100.00
43878;BME280;29815;48.184;11.268;2023-05-24T08:26:40;95761.16;;;13.58;100.00
43878;BME280;29815;48.184;11.268;2023-05-24T08:29:12;95756.91;;;13.46;100.00
43878;BME280;29815;48.184;11.268;2023-05-24T08:31:47;95769.34;;;13.47;100.00
43878;BME280;29815;48.184;11.268;2023-05-24T08:34:17;95769.84;;;13.54;100.00
43878;BME280;29815;48.184;11.268;2023-05-24T08:36:47;95764.34;;;13.65;100.00
43878;BME280;29815;48.184;11.268;2023-05-24T08:39:17;95761.53;;;13.75;100.00
43878;BME280;29815;48.184;11.268;2023-05-24T08:41:47;95762.56;;;13.84;100.00
43878;BME280;29815;48.184;11.268;2023-05-24T08:44:41;95759.41;;;14.01;100.00
43878;BME280;29815;48.184;11.268;2023-05-24T08:47:19;95755.84;;;14.05;100.00
43878;BME280;29815;48.184;11.268;2023-05-24T08:49:50;95757.47;;;14.06;100.00
43878;BME280;29815;48.184;11.268;2023-05-24T08:52:21;95751.47;;;14.09;100.00
43878;BME280;29815;48.184;11.268;2023-05-24T08:54:51;95744.88;;;14.20;100.00
43878;BME280;29815;48.184;11.268;2023-05-24T08:57:21;95754.47;;;14.32;100.00
43878;BME280;29815;48.184;11.268;2023-05-24T08:59:53;95752.78;;;14.41;100.00
43878;BME280;29815;48.184;11.268;2023-05-24T09:02:23;95759.75;;;14.47;100.00
43878;BME280;29815;48.184;11.268;2023-05-24T09:04:54;95755.66;;;14.49;100.00
43878;BME280;29815;48.184;11.268;2023-05-24T09:07:25;95758.53;;;14.58;100.00
43878;BME280;29815;48.184;11.268;2023-05-24T09:10:03;95758.75;;;14.62;100.00
43878;BME280;29815;48.184;11.268;2023-05-24T09:12:36;95755.06;;;14.52;100.00
43878;BME280;29815;48.184;11.268;2023-05-24T09:15:08;95759.06;;;14.31;100.00
43878;BME280;29815;48.184;11.268;2023-05-24T09:17:39;95760.13;;;14.11;100.00
43878;BME280;29815;48.184;11.268;2023-05-24T09:20:11;95756.41;;;14.02;100.00
43878;BME280;29815;48.184;11.268;2023-05-24T09:22:42;95767.00;;;13.99;100.00
43878;BME280;29815;48.184;11.268;2023-05-24T09:25:13;95755.09;;;14.00;100.00
43878;BME280;29815;48.184;11.268;2023-05-24T09:27:50;95767.06;;;13.94;100.00
43878;BME280;29815;48.184;11.268;2023-05-24T09:30:22;95768.97;;;13.93;100.00
43878;BME280;29815;48.184;11.268;2023-05-24T09:32:56;95763.56;;;13.93;100.00
43878;BME280;29815;48.184;11.268;2023-05-24T09:35:27;95756.25;;;13.94;100.00
43878;BME280;29815;48.184;11.268;2023-05-24T09:37:59;95761.75;;;13.83;100.00
43878;BME280;29815;48.184;11.268;2023-05-24T09:40:29;95777.22;;;13.78;100.00
43878;BME280;29815;48.184;11.268;2023-05-24T09:43:06;95777.00;;;13.69;100.00
43878;BME280;29815;48.184;11.268;2023-05-24T09:45:40;95776.81;;;13.61;100.00
43878;BME280;29815;48.184;11.268;2023-05-24T09:48:15;95773.69;;;13.43;100.00
43878;BME280;29815;48.184;11.268;2023-05-24T09:51:04;95774.88;;;13.32;100.00
43878;BME280;29815;48.184;11.268;2023-05-24T09:53:37;95781.38;;;13.31;100.00
43878;BME280;29815;48.184;11.268;2023-05-24T09:56:09;95776.50;;;13.33;100.00
43878;BME280;29815;48.184;11.268;2023-05-24T09:58:39;95779.38;;;13.42;100.00
43878;BME280;29815;48.184;11.268;2023-05-24T10:01:11;95772.25;;;13.56;100.00
43878;BME280;29815;48.184;11.268;2023-05-24T10:03:52;95780.31;;;13.66;100.00
43878;BME280;29815;48.184;11.268;2023-05-24T10:06:22;95782.13;;;13.71;100.00
43878;BME280;29815;48.184;11.268;2023-05-24T10:08:54;95781.72;;;13.87;100.00
43878;BME280;29815;48.184;11.268;2023-05-24T10:11:25;95784.59;;;13.96;100.00
43878;BME280;29815;48.184;11.268;2023-05-24T10:13:55;95789.84;;;14.16;100.00
43878;BME280;29815;48.184;11.268;2023-05-24T10:16:26;95787.91;;;14.22;100.00
43878;BME280;29815;48.184;11.268;2023-05-24T10:18:56;95797.31;;;14.24;100.00
43878;BME280;29815;48.184;11.268;2023-05-24T10:21:28;95783.78;;;14.24;100.00
43878;BME280;29815;48.184;11.268;2023-05-24T10:24:01;95783.41;;;14.36;100.00
43878;BME280;29815;48.184;11.268;2023-05-24T10:26:36;95783.09;;;14.43;100.00
43878;BME280;29815;48.184;11.268;2023-05-24T10:29:12;95786.56;;;14.48;100.00
43878;BME280;29815;48.184;11.268;2023-05-24T10:31:50;95787.34;;;14.49;100.00
43878;BME280;29815;48.184;11.268;2023-05-24T10:34:21;95787.97;;;14.41;100.00
43878;BME280;29815;48.184;11.268;2023-05-24T10:36:51;95794.31;;;14.26;100.00
43878;BME280;29815;48.184;11.268;2023-05-24T10:39:23;95791.09;;;14.24;100.00
43878;BME280;29815;48.184;11.268;2023-05-24T10:41:55;95785.69;;;14.24;100.00
43878;BME280;29815;48.184;11.268;2023-05-24T10:44:28;95792.50;;;14.21;100.00
43878;BME280;29815;48.184;11.268;2023-05-24T10:47:08;95786.03;;;14.17;100.00
43878;BME280;29815;48.184;11.268;2023-05-24T10:49:46;95790.94;;;14.15;100.00
43878;BME280;29815;48.184;11.268;2023-05-24T10:52:19;95793.63;;;14.15;100.00
43878;BME280;29815;48.184;11.268;2023-05-24T10:55:02;95786.38;;;14.11;100.00
43878;BME280;29815;48.184;11.268;2023-05-24T10:57:33;95789.66;;;14.08;100.00
43878;BME280;29815;48.184;11.268;2023-05-24T11:00:27;95786.94;;;14.08;100.00
43878;BME280;29815;48.184;11.268;2023-05-24T11:03:08;95796.72;;;14.04;100.00
43878;BME280;29815;48.184;11.268;2023-05-24T11:05:50;95791.03;;;14.05;100.00
43878;BME280;29815;48.184;11.268;2023-05-24T11:08:28;95793.72;;;14.05;100.00
43878;BME280;29815;48.184;11.268;2023-05-24T11:11:10;95792.69;;;14.01;100.00
43878;BME280;29815;48.184;11.268;2023-05-24T11:13:46;95789.22;;;13.96;100.00
43878;BME280;29815;48.184;11.268;2023-05-24T11:16:35;95780.13;;;13.86;100.00
43878;BME280;29815;48.184;11.268;2023-05-24T11:19:15;95792.03;;;13.85;100.00
43878;BME280;29815;48.184;11.268;2023-05-24T11:21:46;95793.13;;;13.84;100.00
43878;BME280;29815;48.184;11.268;2023-05-24T11:24:19;95791.22;;;13.85;100.00
43878;BME280;29815;48.184;11.268;2023-05-24T11:26:50;95788.00;;;13.83;100.00
43878;BME280;29815;48.184;11.268;2023-05-24T11:29:20;95786.91;;;13.84;100.00
43878;BME280;29815;48.184;11.268;2023-05-24T11:31:52;95782.00;;;13.86;100.00
43878;BME280;29815;48.184;11.268;2023-05-24T11:34:26;95784.81;;;13.76;100.00
43878;BME280;29815;48.184;11.268;2023-05-24T11:36:57;95792.91;;;13.76;100.00
43878;BME280;29815;48.184;11.268;2023-05-24T11:39:31;95790.47;;;13.79;100.00
43878;BME280;29815;48.184;11.268;2023-05-24T11:42:04;95787.94;;;13.88;100.00
43878;BME280;29815;48.184;11.268;2023-05-24T11:44:35;95778.38;;;13.96;100.00
43878;BME280;29815;48.184;11.268;2023-05-24T11:47:08;95778.81;;;14.08;100.00
43878;BME280;29815;48.184;11.268;2023-05-24T11:49:40;95769.03;;;14.12;100.00
43878;BME280;29815;48.184;11.268;2023-05-24T11:52:10;95776.97;;;14.03;100.00
43878;BME280;29815;48.184;11.268;2023-05-24T11:54:40;95776.56;;;13.91;100.00
43878;BME280;29815;48.184;11.268;2023-05-24T11:57:11;95777.44;;;13.81;100.00
43878;BME280;29815;48.184;11.268;2023-05-24T11:59:41;95778.31;;;13.77;100.00
43878;BME280;29815;48.184;11.268;2023-05-24T12:02:11;95772.03;;;13.81;100.00
43878;BME280;29815;48.184;11.268;2023-05-24T12:04:43;95771.16;;;13.91;100.00
43878;BME280;29815;48.184;11.268;2023-05-24T12:07:14;95774.03;;;14.00;100.00
43878;BME280;29815;48.184;11.268;2023-05-24T12:09:44;95772.38;;;14.04;100.00
43878;BME280;29815;48.184;11.268;2023-05-24T12:12:15;95782.34;;;14.08;100.00
43878;BME280;29815;48.184;11.268;2023-05-24T12:14:44;95773.66;;;14.11;100.00
43878;BME280;29815;48.184;11.268;2023-05-24T12:17:14;95781.47;;;14.13;100.00
43878;BME280;29815;48.184;11.268;2023-05-24T12:19:49;95778.50;;;14.14;100.00
43878;BME280;29815;48.184;11.268;2023-05-24T12:22:25;95774.41;;;14.17;100.00
43878;BME280;29815;48.184;11.268;2023-05-24T12:24:57;95771.34;;;14.23;100.00
43878;BME280;29815;48.184;11.268;2023-05-24T12:27:27;95777.50;;;14.29;100.00
43878;BME280;29815;48.184;11.268;2023-05-24T12:30:05;95777.69;;;14.38;100.00
43878;BME280;29815;48.184;11.268;2023-05-24T12:32:37;95780.66;;;14.41;100.00
43878;BME280;29815;48.184;11.268;2023-05-24T12:35:10;95771.16;;;14.44;100.00
43878;BME280;29815;48.184;11.268;2023-05-24T12:37:40;95769.41;;;14.53;100.00
43878;BME280;29815;48.184;11.268;2023-05-24T12:40:15;95761.41;;;14.67;100.00
43878;BME280;29815;48.184;11.268;2023-05-24T12:42:50;95775.84;;;14.81;100.00
43878;BME280;29815;48.184;11.268;2023-05-24T12:45:22;95772.13;;;14.96;100.00
43878;BME280;29815;48.184;11.268;2023-05-24T12:47:54;95771.78;;;15.02;100.00
43878;BME280;29815;48.184;11.268;2023-05-24T12:50:27;95771.91;;;15.11;100.00
43878;BME280;29815;48.184;11.268;2023-05-24T12:52:58;95768.25;;;15.20;100.00
43878;BME280;29815;48.184;11.268;2023-05-24T12:55:28;95764.50;;;15.35;100.00
43878;BME280;29815;48.184;11.268;2023-05-24T12:57:58;95763.97;;;15.52;100.00
43878;BME280;29815;48.184;11.268;2023-05-24T13:00:29;95766.75;;;15.66;100.00
43878;BME280;29815;48.184;11.268;2023-05-24T13:02:59;95763.59;;;15.77;98.33